Time;durP1;ratioP1;P1;durP2;ratioP2;P2;SDS_P1;SDS_P2;PMS_P1;PMS_P2;Temp;Humidity;BMP_temperature;BMP_pressure;BME280_temperature;BME280_humidity;BME280_pressure;Samples;Min_cycle;Max_cycle;Signal;HPM_P1;HPM_P2
2022/10/25 00:00:47;;;;;;;;;16.00;14.00;;;;;18.25;57.70;98342.94;4964752;28;104076;-62
2022/10/25 00:03:14;;;;;;;;;13.50;12.00;;;;;18.23;57.91;98340.47;4966103;28;102710;-61
2022/10/25 00:05:41;;;;;;;;;16.00;13.00;;;;;18.23;57.74;98345.13;4952438;28;102801;-61
2022/10/25 00:08:08;;;;;;;;;12.75;12.75;;;;;18.23;57.54;98348.69;4966708;28;102592;-61
2022/10/25 00:10:35;;;;;;;;;14.00;13.50;;;;;18.23;57.52;98342.38;4963966;28;104062;-61
2022/10/25 00:13:03;;;;;;;;;12.25;11.50;;;;;18.23;57.65;98347.88;4966084;28;102328;-61
2022/10/25 00:15:30;;;;;;;;;14.75;13.75;;;;;18.23;57.92;98343.22;4963562;28;102796;-61
2022/10/25 00:17:57;;;;;;;;;13.00;12.25;;;;;18.23;57.68;98353.34;4963031;28;102581;-61
2022/10/25 00:20:24;;;;;;;;;13.50;11.75;;;;;18.24;57.24;98354.97;4962372;28;104615;-61
2022/10/25 00:22:51;;;;;;;;;15.00;12.75;;;;;18.24;57.48;98354.97;4945961;28;102380;-61
2022/10/25 00:25:18;;;;;;;;;11.75;11.00;;;;;18.24;57.52;98357.72;4968023;28;102802;-60
2022/10/25 00:27:45;;;;;;;;;13.00;13.00;;;;;18.23;57.70;98358.81;4968149;28;102332;-61
2022/10/25 00:30:12;;;;;;;;;13.75;13.75;;;;;18.22;57.63;98363.47;4967940;28;104968;-61
2022/10/25 00:32:39;;;;;;;;;10.25;10.25;;;;;18.23;57.89;98365.13;4963264;28;102298;-60
2022/10/25 00:35:06;;;;;;;;;13.00;12.50;;;;;18.22;57.57;98370.84;4946502;28;102418;-61
2022/10/25 00:37:34;;;;;;;;;14.00;13.00;;;;;18.22;57.86;98371.66;4970689;28;102315;-61
2022/10/25 00:40:02;;;;;;;;;11.75;11.25;;;;;18.22;57.32;98366.19;4970453;28;104009;-61
2022/10/25 00:42:29;;;;;;;;;11.33;11.00;;;;;18.21;57.64;98377.38;4968915;28;102255;-62
2022/10/25 00:45:09;;;;;;;;;13.25;12.50;;;;;18.22;57.73;98368.09;4967946;28;102915;-61
2022/10/25 00:47:40;;;;;;;;;12.00;11.25;;;;;18.21;57.84;98370.00;4950380;28;102483;-61
2022/10/25 00:50:16;;;;;;;;;12.25;11.00;;;;;18.21;57.49;98367.28;4964487;28;104091;-61
2022/10/25 00:52:44;;;;;;;;;9.75;9.00;;;;;18.21;57.47;98370.00;4957661;28;102494;-62
2022/10/25 00:55:11;;;;;;;;;13.00;12.50;;;;;18.20;57.80;98368.34;4963770;28;102641;-62
2022/10/25 00:57:44;;;;;;;;;12.50;11.75;;;;;18.21;57.54;98364.53;4965225;28;102402;-61
2022/10/25 01:00:12;;;;;;;;;16.25;15.00;;;;;18.22;57.97;98359.88;4946661;28;104082;-62
2022/10/25 01:02:38;;;;;;;;;13.00;11.00;;;;;18.21;58.11;98358.22;4962264;28;102377;-61
2022/10/25 01:05:06;;;;;;;;;11.75;11.75;;;;;18.21;57.92;98371.91;4949793;28;102696;-62
2022/10/25 01:07:41;;;;;;;;;11.75;11.50;;;;;18.21;57.54;98366.44;4963224;28;103704;-60
2022/10/25 01:10:22;;;;;;;;;13.67;11.67;;;;;18.20;57.58;98360.13;4963033;28;103596;-60
2022/10/25 01:13:14;;;;;;;;;11.00;10.00;;;;;18.21;57.37;98352.75;4962816;28;102336;-61
2022/10/25 01:16:19;;;;;;;;;12.67;11.00;;;;;18.20;57.37;98348.34;4963184;28;102324;-61
2022/10/25 01:19:15;;;;;;;;;11.25;10.25;;;;;18.20;58.05;98345.63;4935455;28;103737;-61
2022/10/25 01:22:19;;;;;;;;;13.75;9.75;;;;;18.19;57.77;98355.72;4959435;28;107945;-61
2022/10/25 01:25:23;;;;;;;;;11.33;11.33;;;;;18.19;57.99;98352.19;4952444;28;102499;-61
2022/10/25 01:28:08;;;;;;;;;11.00;10.67;;;;;18.18;57.92;98345.06;4966606;28;102400;-61
2022/10/25 01:31:12;;;;;;;;;10.75;10.50;;;;;18.18;57.54;98339.59;4964791;28;102357;-61
2022/10/25 01:33:42;;;;;;;;;13.00;12.00;;;;;18.19;57.41;98333.03;4962098;28;108857;-61
2022/10/25 01:36:21;;;;;;;;;12.00;11.00;;;;;18.18;57.80;98339.59;4961323;28;102519;-61
2022/10/25 01:39:08;;;;;;;;;11.50;10.25;;;;;18.18;57.45;98345.06;4961219;28;102248;-60
2022/10/25 01:41:55;;;;;;;;;12.75;10.50;;;;;18.19;57.59;98336.56;4966716;28;102725;-62
2022/10/25 01:44:36;;;;;;;;;12.00;11.25;;;;;18.17;57.70;98346.13;4962688;28;108934;-61
2022/10/25 01:47:05;;;;;;;;;11.25;11.25;;;;;18.18;57.48;98356.00;4957772;28;102357;-60
2022/10/25 01:50:00;;;;;;;;;9.50;9.00;;;;;18.18;57.21;98350.53;4965284;28;102892;-61
2022/10/25 01:52:28;;;;;;;;;10.50;8.25;;;;;18.17;57.68;98349.72;4947831;28;102564;-61
2022/10/25 01:54:54;;;;;;;;;11.00;11.00;;;;;18.17;57.28;98348.88;4959469;28;104081;-60
2022/10/25 01:57:46;;;;;;;;;12.00;11.00;;;;;18.18;57.57;98353.28;4962589;28;102536;-60
2022/10/25 02:00:16;;;;;;;;;12.00;11.25;;;;;18.17;57.29;98352.44;4961821;28;102427;-60
2022/10/25 02:02:49;;;;;;;;;10.50;10.50;;;;;18.17;57.72;98351.63;4929877;28;102415;-61
2022/10/25 02:05:40;;;;;;;;;10.33;10.33;;;;;18.17;57.52;98354.34;4961339;28;104176;-61
2022/10/25 02:08:21;;;;;;;;;10.75;10.00;;;;;18.17;57.61;98346.97;4959875;28;102207;-61
2022/10/25 02:11:11;;;;;;;;;10.67;9.67;;;;;18.18;57.45;98350.53;4960378;28;102371;-61
2022/10/25 02:13:51;;;;;;;;;11.00;10.67;;;;;18.16;57.67;98353.53;4961880;28;102306;-61
2022/10/25 02:16:24;;;;;;;;;11.00;10.25;;;;;18.17;57.52;98363.38;4949088;28;104018;-61
2022/10/25 02:18:54;;;;;;;;;12.67;12.00;;;;;18.18;57.05;98375.16;4943180;28;102301;-61
2022/10/25 02:21:21;;;;;;;;;11.50;11.00;;;;;18.17;57.82;98365.31;4960987;28;103590;-61
2022/10/25 02:23:47;;;;;;;;;11.67;10.00;;;;;18.17;57.44;98368.03;4971485;28;102322;-61
2022/10/25 02:26:14;;;;;;;;;14.75;11.00;;;;;18.16;57.52;98358.16;4953127;28;104099;-61
2022/10/25 02:28:41;;;;;;;;;12.67;12.00;;;;;18.16;57.76;98359.00;4945966;28;102799;-61
2022/10/25 02:31:10;;;;;;;;;11.00;10.00;;;;;18.16;57.57;98352.69;4943717;28;103035;-61
2022/10/25 02:33:37;;;;;;;;;11.00;11.00;;;;;18.16;57.51;98349.94;4964988;28;105110;-61
2022/10/25 02:36:19;;;;;;;;;12.33;12.00;;;;;18.15;57.63;98351.03;4945615;28;103999;-62
2022/10/25 02:38:46;;;;;;;;;10.50;10.50;;;;;18.16;57.51;98347.22;4966795;28;102559;-62
2022/10/25 02:41:13;;;;;;;;;11.50;11.25;;;;;18.15;57.37;98351.03;4968657;28;102283;-60
2022/10/25 02:43:40;;;;;;;;;11.75;10.00;;;;;18.16;57.21;98359.00;4958986;28;103088;-60
2022/10/25 02:46:08;;;;;;;;;10.33;10.33;;;;;18.16;57.29;98353.53;4967702;28;104324;-60
2022/10/25 02:48:36;;;;;;;;;10.67;10.00;;;;;18.17;57.87;98354.34;4957755;28;102635;-61
2022/10/25 02:51:04;;;;;;;;;10.33;10.33;;;;;18.15;57.73;98353.78;4962579;28;102144;-61
2022/10/25 02:53:31;;;;;;;;;11.00;10.50;;;;;18.15;57.27;98357.34;4964991;28;102450;-62
2022/10/25 02:56:01;;;;;;;;;10.75;10.00;;;;;18.16;57.34;98359.00;4965163;28;104099;-61
2022/10/25 02:58:29;;;;;;;;;13.67;12.33;;;;;18.16;57.39;98355.44;4946803;28;102581;-61
2022/10/25 03:00:56;;;;;;;;;10.00;9.67;;;;;18.15;56.97;98356.50;4977644;28;102694;-61
2022/10/25 03:03:23;;;;;;;;;10.00;9.75;;;;;18.16;57.17;98355.44;4949647;28;102393;-60
2022/10/25 03:05:50;;;;;;;;;12.00;10.50;;;;;18.15;57.39;98356.50;4947107;28;104200;-60
2022/10/25 03:08:17;;;;;;;;;12.33;10.67;;;;;18.16;57.54;98360.91;4964947;28;102567;-60
2022/10/25 03:10:45;;;;;;;;;9.67;9.67;;;;;18.16;57.63;98366.38;4964251;28;103946;-60
2022/10/25 03:13:11;;;;;;;;;11.75;11.50;;;;;18.15;57.56;98370.19;4979540;28;102747;-60
2022/10/25 03:15:38;;;;;;;;;11.00;10.67;;;;;18.15;57.77;98367.44;4963962;28;102907;-60
2022/10/25 03:18:05;;;;;;;;;11.33;10.67;;;;;18.15;57.81;98376.50;4964356;28;102480;-61
2022/10/25 03:20:32;;;;;;;;;12.67;11.00;;;;;18.16;57.24;98369.94;4961701;28;103192;-60
2022/10/25 03:22:59;;;;;;;;;11.00;11.00;;;;;18.16;57.79;98363.63;4948937;28;103769;-60
2022/10/25 03:25:26;;;;;;;;;9.67;9.00;;;;;18.15;57.33;98368.28;4964820;28;108919;-60
2022/10/25 03:27:53;;;;;;;;;11.00;9.33;;;;;18.17;57.47;98376.25;4949593;28;102381;-60
2022/10/25 03:30:20;;;;;;;;;6.75;5.00;;;;;18.16;57.05;98378.16;4957093;28;102781;-60
2022/10/25 03:32:47;;;;;;;;;10.00;10.00;;;;;18.15;57.46;98370.19;4949254;28;103646;-60
2022/10/25 03:35:14;;;;;;;;;10.75;10.75;;;;;18.15;57.14;98383.88;4962636;28;104078;-60
2022/10/25 03:37:41;;;;;;;;;10.50;10.50;;;;;18.15;57.15;98383.88;4970261;28;103571;-61
2022/10/25 03:40:08;;;;;;;;;12.50;11.25;;;;;18.15;57.40;98386.59;4953186;28;104011;-60
2022/10/25 03:42:35;;;;;;;;;12.50;11.25;;;;;18.14;57.16;98379.50;4953496;28;103196;-60
2022/10/25 03:45:03;;;;;;;;;10.50;9.00;;;;;18.15;57.28;98383.88;4962702;28;105185;-60
2022/10/25 03:47:29;;;;;;;;;9.67;9.67;;;;;18.15;57.11;98383.88;4946925;28;102733;-60
2022/10/25 03:49:56;;;;;;;;;8.67;8.33;;;;;18.14;57.29;98387.72;4946596;28;102446;-60
2022/10/25 03:52:23;;;;;;;;;11.00;10.00;;;;;18.14;56.91;98393.19;4965525;28;102729;-60
2022/10/25 03:54:50;;;;;;;;;10.67;10.33;;;;;18.14;57.02;98390.44;4974156;28;104088;-60
2022/10/25 03:57:17;;;;;;;;;11.33;9.67;;;;;18.14;57.26;98396.75;4963101;28;102425;-61
2022/10/25 03:59:44;;;;;;;;;9.67;9.00;;;;;18.14;57.49;98393.19;4963302;28;103401;-61
2022/10/25 04:02:11;;;;;;;;;11.67;11.67;;;;;18.13;57.03;98392.34;4965576;28;104942;-60
2022/10/25 04:04:38;;;;;;;;;12.00;10.00;;;;;18.14;57.02;98393.19;4967304;28;104137;-61
2022/10/25 04:07:05;;;;;;;;;10.00;10.00;;;;;18.14;57.45;98388.53;4949545;28;102630;-61
2022/10/25 04:09:32;;;;;;;;;12.00;9.00;;;;;18.13;57.50;98395.09;4967494;28;102576;-61
2022/10/25 04:11:59;;;;;;;;;11.00;10.33;;;;;18.13;57.50;98392.34;4967689;28;102665;-60
2022/10/25 04:14:26;;;;;;;;;9.25;9.25;;;;;18.13;57.37;98389.63;4948354;28;108717;-61
2022/10/25 04:16:53;;;;;;;;;8.75;8.75;;;;;18.13;57.51;98380.56;4974210;28;103504;-61
2022/10/25 04:19:20;;;;;;;;;9.75;9.50;;;;;18.13;57.48;98386.88;4968236;28;102269;-61
2022/10/25 04:21:47;;;;;;;;;13.50;10.50;;;;;18.12;57.34;98389.88;4963858;28;102849;-61
2022/10/25 04:24:14;;;;;;;;;9.00;9.00;;;;;18.12;57.25;98387.13;4946492;28;104292;-61
2022/10/25 04:26:41;;;;;;;;;8.67;8.33;;;;;18.11;57.00;98399.16;4946849;28;105241;-61
2022/10/25 04:29:09;;;;;;;;;9.00;8.00;;;;;18.11;57.53;98390.94;4963949;28;102356;-61
2022/10/25 04:31:36;;;;;;;;;10.67;9.33;;;;;18.11;57.05;98391.75;4962294;28;102599;-61
2022/10/25 04:34:03;;;;;;;;;10.33;8.00;;;;;18.11;57.56;98393.66;4976992;28;104224;-61
2022/10/25 04:36:30;;;;;;;;;9.25;9.00;;;;;18.12;57.31;98392.59;4965857;28;102516;-61
2022/10/25 04:38:57;;;;;;;;;10.00;9.00;;;;;18.11;56.95;98401.88;4964781;28;102526;-61
2022/10/25 04:41:24;;;;;;;;;8.67;7.00;;;;;18.11;57.65;98399.16;4962745;28;103590;-61
2022/10/25 04:43:51;;;;;;;;;10.33;9.33;;;;;18.11;57.62;98401.88;4949605;28;106445;-60
2022/10/25 04:46:18;;;;;;;;;9.50;8.75;;;;;18.11;57.00;98388.19;4977483;28;102434;-61
2022/10/25 04:48:45;;;;;;;;;11.00;10.00;;;;;18.12;57.47;98390.69;4965363;28;102408;-61
2022/10/25 04:51:12;;;;;;;;;9.33;9.33;;;;;18.11;57.24;98389.03;4968396;28;103362;-61
2022/10/25 04:53:39;;;;;;;;;8.33;8.33;;;;;18.10;56.92;98381.91;4963501;28;102923;-61
2022/10/25 04:56:08;;;;;;;;;7.00;7.00;;;;;18.10;57.53;98387.38;4955401;28;103950;-61
2022/10/25 04:58:35;;;;;;;;;9.00;8.00;;;;;18.11;57.14;98390.94;4959012;28;102621;-61
2022/10/25 05:01:06;;;;;;;;;9.00;7.00;;;;;18.11;56.83;98388.19;4955323;28;103393;-62
2022/10/25 05:03:34;;;;;;;;;13.00;10.67;;;;;18.11;57.15;98380.00;4972687;28;104192;-61
2022/10/25 05:06:21;;;;;;;;;8.33;8.00;;;;;18.11;57.51;98385.47;4963022;28;102321;-61
2022/10/25 05:08:48;;;;;;;;;8.67;8.00;;;;;18.11;57.43;98382.72;4946192;28;102497;-61
2022/10/25 05:11:17;;;;;;;;;4.67;4.67;;;;;18.10;57.34;98389.31;4963715;28;102586;-61
2022/10/25 05:13:44;;;;;;;;;11.67;10.33;;;;;18.10;57.17;98383.84;4962416;28;104050;-61
2022/10/25 05:16:13;;;;;;;;;10.00;9.00;;;;;18.10;57.00;98389.31;4962248;28;102999;-61
2022/10/25 05:18:41;;;;;;;;;10.00;8.67;;;;;18.10;57.13;98397.50;4969231;28;102174;-61
2022/10/25 05:21:08;;;;;;;;;8.67;8.67;;;;;18.11;57.74;98383.56;4965520;28;102044;-61
2022/10/25 05:23:35;;;;;;;;;9.67;9.67;;;;;18.09;57.31;98387.66;4962044;28;104689;-61
2022/10/25 05:26:07;;;;;;;;;11.33;9.67;;;;;18.11;57.02;98388.19;4964447;28;102475;-61
2022/10/25 05:28:34;;;;;;;;;9.00;8.67;;;;;18.10;57.69;98400.25;4964299;28;102234;-61
2022/10/25 05:31:08;;;;;;;;;8.33;8.00;;;;;18.09;57.44;98395.84;4962677;28;102234;-61
2022/10/25 05:33:40;;;;;;;;;7.00;6.00;;;;;18.10;57.32;98403.00;4946219;28;108426;-61
2022/10/25 05:36:07;;;;;;;;;8.00;8.00;;;;;18.10;57.43;98411.19;4964371;28;102154;-60
2022/10/25 05:38:34;;;;;;;;;8.00;8.00;;;;;18.08;57.51;98395.03;4963955;28;102237;-61
2022/10/25 05:41:03;;;;;;;;;6.67;6.67;;;;;18.09;56.93;98406.81;4965599;28;102116;-61
2022/10/25 05:43:30;;;;;;;;;10.00;9.67;;;;;18.10;57.67;98408.47;4964225;28;104037;-61
2022/10/25 05:46:14;;;;;;;;;9.67;8.00;;;;;18.08;57.41;98411.44;4946846;28;102502;-61
2022/10/25 05:48:41;;;;;;;;;9.00;8.00;;;;;18.08;57.43;98410.59;4962830;28;102594;-61
2022/10/25 05:51:18;;;;;;;;;8.00;8.00;;;;;18.08;57.16;98410.59;4964660;28;102446;-61
2022/10/25 05:54:00;;;;;;;;;8.00;7.33;;;;;18.08;57.21;98411.44;4963319;28;108937;-61
2022/10/25 05:56:28;;;;;;;;;9.25;9.00;;;;;18.09;57.07;98412.28;4963910;28;102505;-61
2022/10/25 05:58:56;;;;;;;;;6.33;6.00;;;;;18.07;57.11;98420.72;4946116;28;102266;-61
2022/10/25 06:01:23;;;;;;;;;9.00;9.00;;;;;18.07;57.76;98426.19;4963688;28;102380;-60
2022/10/25 06:03:50;;;;;;;;;7.00;7.00;;;;;18.08;57.49;98432.50;4961625;28;104161;-61
2022/10/25 06:06:17;;;;;;;;;10.00;9.00;;;;;18.08;57.55;98443.44;4943288;28;102187;-61
2022/10/25 06:08:45;;;;;;;;;8.00;8.00;;;;;18.08;57.13;98438.81;4953142;28;102564;-61
2022/10/25 06:11:17;;;;;;;;;8.00;8.00;;;;;18.08;57.06;98446.19;4963205;28;108165;-61
2022/10/25 06:13:43;;;;;;;;;9.50;9.00;;;;;18.08;57.44;98451.66;4964429;28;104130;-61
2022/10/25 06:16:12;;;;;;;;;7.33;7.33;;;;;18.08;57.78;98457.13;4962983;28;102267;-61
2022/10/25 06:18:39;;;;;;;;;9.33;8.67;;;;;18.07;57.14;98455.47;4946280;28;102331;-61
2022/10/25 06:21:14;;;;;;;;;8.67;8.00;;;;;18.08;57.53;98454.38;4962652;28;102400;-61
2022/10/25 06:23:41;;;;;;;;;8.00;7.00;;;;;18.08;57.46;98452.50;4960208;28;104057;-61
2022/10/25 06:26:12;;;;;;;;;8.00;7.67;;;;;18.09;57.06;98445.09;4947198;28;102169;-61
2022/10/25 06:28:39;;;;;;;;;7.00;7.00;;;;;18.07;57.54;98448.09;4966523;28;102474;-60
2022/10/25 06:31:11;;;;;;;;;8.00;8.00;;;;;18.08;57.09;98448.91;4948692;28;102526;-61
2022/10/25 06:33:38;;;;;;;;;7.00;7.00;;;;;18.08;57.34;98457.13;4966093;28;104099;-61
2022/10/25 06:36:06;;;;;;;;;8.00;8.00;;;;;18.06;57.53;98451.91;4947706;28;102407;-61
2022/10/25 06:38:33;;;;;;;;;7.00;7.00;;;;;18.07;57.41;98450.00;4964884;28;102302;-61
2022/10/25 06:41:01;;;;;;;;;8.33;8.33;;;;;18.07;56.91;98466.41;4966105;28;103240;-60
2022/10/25 06:43:28;;;;;;;;;7.00;7.00;;;;;18.07;57.73;98474.63;4966322;28;109763;-61
2022/10/25 06:45:55;;;;;;;;;7.33;7.33;;;;;18.06;57.45;98473.78;4966656;28;102328;-61
2022/10/25 06:48:22;;;;;;;;;9.67;8.00;;;;;18.07;57.81;98471.88;4948928;28;102567;-61
2022/10/25 06:51:02;;;;;;;;;7.33;7.33;;;;;18.05;57.49;98471.31;4966225;28;102406;-61
2022/10/25 06:53:29;;;;;;;;;6.00;5.00;;;;;18.06;57.47;98481.16;4963539;28;108845;-61
2022/10/25 06:56:07;;;;;;;;;6.33;6.33;;;;;18.07;57.24;98488.31;4966914;28;102541;-61
2022/10/25 06:58:37;;;;;;;;;10.67;10.00;;;;;18.06;56.98;98492.09;4981357;28;102439;-61
2022/10/25 07:01:12;;;;;;;;;8.00;8.00;;;;;18.06;57.66;98494.84;4949993;28;103040;-60
2022/10/25 07:03:39;;;;;;;;;8.00;7.00;;;;;18.07;57.08;98501.97;4948194;28;104317;-61
2022/10/25 07:06:08;;;;;;;;;8.00;8.00;;;;;18.06;57.71;98494.84;4966750;28;102510;-61
2022/10/25 07:08:36;;;;;;;;;7.00;7.00;;;;;18.06;57.60;98503.88;4964322;28;102957;-61
2022/10/25 07:11:03;;;;;;;;;7.67;7.67;;;;;18.06;56.89;98505.78;4967845;28;102507;-61
2022/10/25 07:13:31;;;;;;;;;6.00;4.67;;;;;18.07;57.80;98496.50;4966733;28;104060;-61
2022/10/25 07:16:05;;;;;;;;;6.33;5.67;;;;;18.07;57.05;98501.97;4965796;28;102038;-60
2022/10/25 07:18:32;;;;;;;;;8.67;7.00;;;;;18.07;57.51;98501.97;4951461;28;102467;-61
2022/10/25 07:21:03;;;;;;;;;8.00;7.50;;;;;18.06;57.30;98505.78;4967556;28;102202;-61
2022/10/25 07:23:30;;;;;;;;;7.00;7.00;;;;;18.07;57.34;98507.44;4957787;28;108967;-59
2022/10/25 07:25:57;;;;;;;;;6.67;6.67;;;;;18.06;57.01;98503.88;4966419;28;102478;-60
2022/10/25 07:28:24;;;;;;;;;6.33;5.33;;;;;18.06;56.87;98506.63;4964378;28;102351;-60
2022/10/25 07:30:51;;;;;;;;;7.67;7.00;;;;;18.07;57.18;98496.50;4966465;28;102665;-60
2022/10/25 07:33:19;;;;;;;;;9.00;8.33;;;;;18.06;57.56;98498.41;4931735;28;104088;-60
2022/10/25 07:35:46;;;;;;;;;9.33;8.00;;;;;18.07;57.64;98493.78;4966237;28;102338;-60
2022/10/25 07:38:31;;;;;;;;;10.33;8.33;;;;;18.08;57.94;98509.13;4964908;28;102612;-61
2022/10/25 07:40:58;;;;;;;;;8.00;7.00;;;;;18.07;57.51;98502.81;4950028;28;102540;-60
2022/10/25 07:43:26;;;;;;;;;7.67;7.00;;;;;18.08;57.07;98493.53;4964832;28;104242;-60
2022/10/25 07:45:53;;;;;;;;;6.00;6.00;;;;;18.08;57.87;98501.75;4965565;28;102463;-61
2022/10/25 07:48:20;;;;;;;;;6.67;6.67;;;;;18.08;57.41;98499.00;4964344;28;102160;-60
2022/10/25 07:50:47;;;;;;;;;7.00;6.67;;;;;18.07;57.11;98494.59;4965531;28;103336;-61
2022/10/25 07:53:14;;;;;;;;;10.33;8.00;;;;;18.10;57.14;98496.81;4963775;28;104161;-61
2022/10/25 07:55:41;;;;;;;;;8.33;8.00;;;;;18.09;57.18;98477.94;4948119;28;102161;-61
2022/10/25 07:58:09;;;;;;;;;4.67;4.00;;;;;18.10;57.14;98488.63;4965221;28;102384;-61
2022/10/25 08:00:36;;;;;;;;;6.33;6.00;;;;;18.10;57.57;98491.34;4965119;28;102673;-61
2022/10/25 08:03:03;;;;;;;;;6.00;6.00;;;;;18.10;57.43;98485.88;4965828;28;103454;-61
2022/10/25 08:05:30;;;;;;;;;7.00;7.00;;;;;18.10;57.39;98496.03;4965921;28;102494;-61
2022/10/25 08:07:57;;;;;;;;;7.00;7.00;;;;;18.10;57.43;98493.28;4962775;28;102543;-61
2022/10/25 08:10:24;;;;;;;;;8.67;7.33;;;;;18.10;57.35;98502.31;4966234;28;102106;-61
2022/10/25 08:12:53;;;;;;;;;8.00;6.67;;;;;18.10;57.03;98504.22;4963654;28;103808;-61
2022/10/25 08:15:20;;;;;;;;;11.33;9.67;;;;;18.09;57.47;98499.84;4962616;28;102472;-61
2022/10/25 08:17:47;;;;;;;;;6.00;5.67;;;;;18.09;57.47;98499.84;4946707;28;102692;-61
2022/10/25 08:20:14;;;;;;;;;4.00;4.00;;;;;18.10;57.64;98520.66;4965778;28;103479;-60
2022/10/25 08:22:41;;;;;;;;;7.67;7.00;;;;;18.11;57.47;98538.72;4963675;28;104191;-61
2022/10/25 08:25:08;;;;;;;;;9.33;7.33;;;;;18.10;57.07;98529.66;4964332;28;102026;-61
2022/10/25 08:27:36;;;;;;;;;5.33;5.33;;;;;18.10;57.23;98529.66;4964426;28;102463;-61
2022/10/25 08:30:03;;;;;;;;;6.67;6.67;;;;;18.10;57.70;98539.81;4948196;28;102550;-61
2022/10/25 08:32:30;;;;;;;;;6.00;6.00;;;;;18.11;57.42;98546.91;4964741;28;104267;-61
2022/10/25 08:34:57;;;;;;;;;7.67;7.00;;;;;18.10;57.17;98546.09;4964282;28;102534;-61
2022/10/25 08:37:24;;;;;;;;;7.00;6.33;;;;;18.10;56.99;98545.28;4963278;28;102310;-61
2022/10/25 08:39:51;;;;;;;;;7.33;7.00;;;;;18.10;57.51;98542.53;4965746;28;102219;-61
2022/10/25 08:42:45;;;;;;;;;8.00;7.00;;;;;18.09;57.02;98540.88;4947190;28;104061;-62
2022/10/25 08:45:21;;;;;;;;;6.33;6.00;;;;;18.11;57.14;98541.44;4957680;28;102370;-61
2022/10/25 08:47:51;;;;;;;;;5.00;5.00;;;;;18.10;57.67;98537.06;4946596;28;102505;-61
2022/10/25 08:50:33;;;;;;;;;8.33;7.33;;;;;18.11;56.97;98538.72;4950910;28;102479;-61
2022/10/25 08:53:01;;;;;;;;;8.33;6.67;;;;;18.10;57.07;98537.06;4946514;28;108905;-61
2022/10/25 08:55:29;;;;;;;;;6.33;6.33;;;;;18.10;57.28;98540.59;4963608;28;103228;-62
2022/10/25 08:57:57;;;;;;;;;7.00;7.00;;;;;18.08;57.59;98536.47;4979199;28;102420;-61
2022/10/25 09:00:24;;;;;;;;;5.33;5.00;;;;;18.08;57.62;98531.84;4966004;28;102582;-62
2022/10/25 09:02:54;;;;;;;;;7.67;6.67;;;;;18.09;57.17;98529.94;4962398;28;104069;-60
2022/10/25 09:05:33;;;;;;;;;6.67;6.00;;;;;18.10;57.05;98534.34;4964568;28;102057;-60
2022/10/25 09:08:35;;;;;;;;;7.33;7.00;;;;;18.09;56.84;98538.16;4963777;28;103023;-60
2022/10/25 09:11:17;;;;;;;;;7.67;7.00;;;;;18.09;57.69;98532.69;4972724;28;102610;-60
2022/10/25 09:13:53;;;;;;;;;6.67;6.00;;;;;18.08;57.50;98520.06;4963424;28;109439;-60
2022/10/25 09:16:35;;;;;;;;;7.00;6.00;;;;;18.07;57.54;98529.34;4963364;28;103088;-60
2022/10/25 09:19:02;;;;;;;;;7.67;7.00;;;;;18.10;57.49;98537.06;4960114;28;102658;-60
2022/10/25 09:21:47;;;;;;;;;7.00;6.00;;;;;18.09;57.41;98535.41;4948101;28;102552;-60
2022/10/25 09:24:20;;;;;;;;;6.00;5.33;;;;;18.09;57.18;98540.88;4962345;28;109206;-60
2022/10/25 09:26:57;;;;;;;;;6.00;5.00;;;;;18.09;57.13;98535.41;4974939;28;102296;-60
2022/10/25 09:29:34;;;;;;;;;6.00;6.00;;;;;18.08;56.95;98537.31;4964159;28;102370;-60
2022/10/25 09:32:02;;;;;;;;;6.33;6.33;;;;;18.08;56.97;98534.56;4961878;28;102308;-60
2022/10/25 09:34:31;;;;;;;;;5.67;5.33;;;;;18.10;57.42;98539.81;4961852;28;109061;-61
2022/10/25 09:37:44;;;;;;;;;7.33;6.33;;;;;18.09;57.50;98529.94;4963919;28;102619;-61
2022/10/25 09:40:22;;;;;;;;;5.67;5.67;;;;;18.10;57.22;98539.81;4966019;28;102572;-61
2022/10/25 09:42:54;;;;;;;;;7.33;7.00;;;;;18.10;57.52;98532.41;4948218;28;102382;-61
2022/10/25 09:45:32;;;;;;;;;7.00;7.00;;;;;18.11;56.93;98522.28;4962665;28;104065;-61
2022/10/25 09:48:10;;;;;;;;;7.00;7.00;;;;;18.11;57.25;98525.84;4962685;28;102588;-61
2022/10/25 09:50:45;;;;;;;;;8.33;7.67;;;;;18.11;57.10;98538.72;4962231;28;102289;-61
2022/10/25 09:53:13;;;;;;;;;6.00;5.00;;;;;18.11;57.45;98530.50;4946671;28;102399;-61
2022/10/25 09:55:54;;;;;;;;;7.00;6.00;;;;;18.11;56.83;98528.59;4946352;28;104297;-61
2022/10/25 09:58:25;;;;;;;;;6.00;6.00;;;;;18.13;57.36;98525.63;4961381;28;102555;-61
2022/10/25 10:00:54;;;;;;;;;6.33;6.00;;;;;18.12;57.53;98523.94;4961747;28;102515;-61
2022/10/25 10:03:20;;;;;;;;;7.00;6.00;;;;;18.13;57.13;98533.81;4963887;28;102652;-61
2022/10/25 10:05:55;;;;;;;;;6.00;5.67;;;;;18.14;57.18;98530.84;4945183;28;104088;-61
2022/10/25 10:08:23;;;;;;;;;4.00;4.00;;;;;18.14;57.58;98524.53;4962154;28;102303;-61
2022/10/25 10:10:50;;;;;;;;;6.00;5.67;;;;;18.14;56.97;98533.59;4962437;28;102367;-61
2022/10/25 10:13:33;;;;;;;;;7.67;5.67;;;;;18.15;57.45;98537.13;4944335;28;102392;-61
2022/10/25 10:16:01;;;;;;;;;5.00;5.00;;;;;18.15;56.69;98537.94;4960987;28;108917;-61
2022/10/25 10:18:30;;;;;;;;;7.00;5.33;;;;;18.16;57.55;98536.06;4961822;28;102255;-61
2022/10/25 10:21:09;;;;;;;;;7.00;5.33;;;;;18.15;57.00;98535.22;4961263;28;102125;-61
2022/10/25 10:23:44;;;;;;;;;6.00;6.00;;;;;18.16;56.83;98536.88;4957913;28;102514;-61
2022/10/25 10:26:37;;;;;;;;;6.00;6.00;;;;;18.17;57.14;98541.28;4962859;28;104198;-61
2022/10/25 10:29:15;;;;;;;;;6.00;6.00;;;;;18.16;57.21;98539.63;4953416;28;104075;-61
2022/10/25 10:31:46;;;;;;;;;6.33;5.67;;;;;18.17;57.70;98543.19;4977497;28;102366;-61
2022/10/25 10:34:32;;;;;;;;;7.33;7.00;;;;;18.17;56.81;98540.44;4946690;28;102051;-61
2022/10/25 10:37:11;;;;;;;;;6.33;5.67;;;;;18.16;57.25;98534.16;4935613;28;109305;-61
2022/10/25 10:39:48;;;;;;;;;6.67;5.67;;;;;18.16;57.30;98544.25;4961840;28;102572;-62
2022/10/25 10:42:20;;;;;;;;;4.00;4.00;;;;;18.16;57.51;98538.78;4962903;28;103172;-62
2022/10/25 10:45:08;;;;;;;;;6.00;5.00;;;;;18.17;57.03;98534.97;4961562;28;102408;-61
2022/10/25 10:47:50;;;;;;;;;5.67;5.67;;;;;18.17;56.91;98537.72;4962317;28;108873;-61
2022/10/25 10:50:23;;;;;;;;;5.33;5.33;;;;;18.18;56.98;98536.63;4963802;28;102549;-61
2022/10/25 10:53:05;;;;;;;;;4.67;4.67;;;;;18.18;57.31;98536.63;4963649;28;103241;-61
2022/10/25 10:55:36;;;;;;;;;6.00;5.00;;;;;18.19;57.56;98539.09;4963764;28;102452;-61
2022/10/25 10:58:13;;;;;;;;;6.67;6.00;;;;;18.20;56.86;98534.47;4961893;28;108898;-62
2022/10/25 11:00:48;;;;;;;;;6.00;5.33;;;;;18.20;57.33;98539.94;4963014;28;102363;-61
2022/10/25 11:03:37;;;;;;;;;5.67;5.67;;;;;18.21;56.83;98544.34;4963396;28;102870;-60
2022/10/25 11:06:14;;;;;;;;;4.67;3.67;;;;;18.21;57.51;98547.06;4956229;28;103929;-60
2022/10/25 11:08:45;;;;;;;;;3.00;3.00;;;;;18.22;57.22;98543.25;4962046;28;104021;-61
2022/10/25 11:11:20;;;;;;;;;5.00;4.67;;;;;18.22;57.22;98538.63;4960937;28;102451;-61
2022/10/25 11:13:53;;;;;;;;;5.00;5.00;;;;;18.23;56.70;98533.97;4964197;28;102479;-58
2022/10/25 11:16:58;;;;;;;;;5.33;5.00;;;;;18.25;57.03;98531.81;4967384;28;102312;-59
2022/10/25 11:19:38;;;;;;;;;6.33;5.67;;;;;18.25;56.82;98529.06;4956809;28;108871;-59
2022/10/25 11:22:20;;;;;;;;;7.00;5.33;;;;;18.26;56.75;98528.00;4963998;28;102576;-59
2022/10/25 11:25:05;;;;;;;;;5.00;5.00;;;;;18.26;56.94;98528.81;4947996;28;102267;-60
2022/10/25 11:28:08;;;;;;;;;6.00;4.67;;;;;18.28;57.16;98531.31;4966477;28;102481;-60
2022/10/25 11:30:44;;;;;;;;;5.67;5.00;;;;;18.27;57.09;98529.66;4937567;28;108856;-60
2022/10/25 11:33:28;;;;;;;;;5.67;5.00;;;;;18.29;56.96;98530.22;4948972;28;102313;-60
2022/10/25 11:36:27;;;;;;;;;5.33;5.00;;;;;18.29;57.00;98522.00;4959378;28;102118;-59
2022/10/25 11:39:03;;;;;;;;;5.00;5.00;;;;;18.29;57.22;98524.75;4980469;28;105064;-60
2022/10/25 11:42:00;;;;;;;;;6.00;6.00;;;;;18.31;56.92;98525.31;4964685;28;109016;-59